Impacts TAF Board INFO
FOR SITUATIONAL AWARENESS. NOT TO BE USED FOR FLIGHT PLANNING PURPOSES.
IDs:

KSLC - Salt Lake City Intl, UT, US

Issued at 2331 UTC 11 Dec 2017
Updated at 0031 UTC 12 Dec 2017
Potential Impact None Slight Moderate High
Time2354Z 12/01Z 12/02Z 12/03Z 12/04Z 12/05Z 12/06Z 12/07Z 12/08Z 12/09Z 12/10Z 12/11Z 12/12Z 12/13Z>>
Type OBS PRVL PRVL
  [TEMP]  
PRVL
  [TEMP]  
PRVL
  [TEMP]  
PRVL
  [TEMP]  
PRVL PRVL PRVL PRVL PRVL PRVL PRVL PRVL
VIS 0.25 1.5 1.5
  [0.25]  
1.5
  [0.25]  
1.5
  [0.25]  
1.5
  [0.25]  
0.25 0.25 0.25 0.25 0.25 0.25 0.25 0.25
CIG 3 4 4
  [1]  
4
  [1]  
4
  [1]  
4
  [1]  
1 1 1 1 1 1 1 1
Cover OVC OVC OVC
  [OVX]  
OVC
  [OVX]  
OVC
  [OVX]  
OVC
  [OVX]  
OVX OVX OVX OVX OVX OVX OVX OVX
FltCat LIFR LIFR LIFR
  [LIFR]  
LIFR
  [LIFR]  
LIFR
  [LIFR]  
LIFR
  [LIFR]  
LIFR LIFR LIFR LIFR LIFR LIFR LIFR LIFR
WX BR BR BR
  [FZFG]  
BR
  [FZFG]  
BR
  [FZFG]  
BR
  [FZFG]  
FZFG FZFG FZFG FZFG FZFG FZFG FZFG FZFG
WDir 350 20 20
[20]
20
[20]
20
[20]
20
[20]
340 340 340 340 340 340 340 340
WSpd 4 4 4
  [4]  
4
  [4]  
4
  [4]  
4
  [4]  
4 4 4 4 4 4 4 4
WGst -- -- --
  [--]  
--
  [--]  
--
  [--]  
--
  [--]  
-- -- -- -- -- -- -- --

Raw TAF
KSLC 112331Z 1200/1306 02004KT 1 1/2SM BR OVC004
  TEMPO 1202/1206 1/4SM FZFG VV001
  FM120600 34004KT 1/4SM FZFG VV001
  FM121800 34005KT 2SM BR SCT005
  FM130300 33004KT 3/4SM BR SCT004


Raw METAR
KSLC 112354Z 35004KT 1/4SM R16L/P6000FT BR OVC003 M03/M03 A3057 RMK AO2 SFC VIS 1 SLP383 60000 I6000 T10281033 11011 21028 55007
KSLC 112302Z 35004KT 1/4SM R16L/P6000FT BR OVC004 M02/M03 A3056 RMK AO2 SFC VIS 1 1/4 T10221033
KSLC 112254Z 34004KT 1/4SM R16L/P6000FT BR OVC005 M02/M03 A3056 RMK AO2 SFC VIS 1 1/2 SLP380 T10221033
KSLC 112154Z 30005KT 1/4SM R16L/P6000FT BR OVC004 M02/M03 A3057 RMK AO2 SFC VIS 1 1/2 SLP380 T10221033
KSLC 112131Z 30004KT 1/4SM R16L/P6000FT BR OVC004 M02/M03 A3057 RMK AO2 SFC VIS 1 3/4 T10171033

METAR Board
Radar Display
Forecast Discussion

FOR SITUATIONAL AWARENESS. NOT TO BE USED FOR FLIGHT PLANNING PURPOSES.